sensor_id;sensor_type;location;lat;lon;timestamp;temperature;humidity
1129;DHT22;553;51.038;7.216;2023-02-28T00:00:36;1.20;93.50
1129;DHT22;553;51.038;7.216;2023-02-28T00:03:03;1.10;93.60
1129;DHT22;553;51.038;7.216;2023-02-28T00:05:30;1.10;93.60
1129;DHT22;553;51.038;7.216;2023-02-28T00:07:57;1.10;93.60
1129;DHT22;553;51.038;7.216;2023-02-28T00:10:28;1.10;93.70
1129;DHT22;553;51.038;7.216;2023-02-28T00:12:56;1.10;93.90
1129;DHT22;553;51.038;7.216;2023-02-28T00:15:26;1.00;93.80
1129;DHT22;553;51.038;7.216;2023-02-28T00:17:53;1.00;94.00
1129;DHT22;553;51.038;7.216;2023-02-28T00:20:20;0.90;94.20
1129;DHT22;553;51.038;7.216;2023-02-28T00:22:49;0.90;94.30
1129;DHT22;553;51.038;7.216;2023-02-28T00:25:18;0.80;94.60
1129;DHT22;553;51.038;7.216;2023-02-28T00:27:46;0.80;94.70
1129;DHT22;553;51.038;7.216;2023-02-28T00:30:15;0.80;94.80
1129;DHT22;553;51.038;7.216;2023-02-28T00:32:43;0.80;94.90
1129;DHT22;553;51.038;7.216;2023-02-28T00:35:11;0.80;94.90
1129;DHT22;553;51.038;7.216;2023-02-28T00:37:40;0.80;95.10
1129;DHT22;553;51.038;7.216;2023-02-28T00:40:10;0.80;95.00
1129;DHT22;553;51.038;7.216;2023-02-28T00:42:38;0.90;94.80
1129;DHT22;553;51.038;7.216;2023-02-28T00:53:32;0.90;94.80
1129;DHT22;553;51.038;7.216;2023-02-28T00:55:59;0.90;95.00
1129;DHT22;553;51.038;7.216;2023-02-28T00:58:26;0.80;94.90
1129;DHT22;553;51.038;7.216;2023-02-28T01:00:54;0.80;95.10
1129;DHT22;553;51.038;7.216;2023-02-28T01:03:21;0.80;95.20
1129;DHT22;553;51.038;7.216;2023-02-28T01:05:48;0.80;95.20
1129;DHT22;553;51.038;7.216;2023-02-28T01:08:16;0.80;95.10
1129;DHT22;553;51.038;7.216;2023-02-28T01:10:43;0.80;95.20
1129;DHT22;553;51.038;7.216;2023-02-28T01:13:10;0.80;95.00
1129;DHT22;553;51.038;7.216;2023-02-28T01:15:48;0.80;95.10
1129;DHT22;553;51.038;7.216;2023-02-28T01:18:16;0.80;95.10
1129;DHT22;553;51.038;7.216;2023-02-28T01:20:43;0.70;95.30
1129;DHT22;553;51.038;7.216;2023-02-28T01:23:10;0.80;95.20
1129;DHT22;553;51.038;7.216;2023-02-28T01:25:37;0.70;95.20
1129;DHT22;553;51.038;7.216;2023-02-28T01:28:04;0.80;95.40
1129;DHT22;553;51.038;7.216;2023-02-28T01:30:32;0.80;95.30
1129;DHT22;553;51.038;7.216;2023-02-28T01:32:59;0.80;95.10
1129;DHT22;553;51.038;7.216;2023-02-28T01:35:26;0.80;95.00
1129;DHT22;553;51.038;7.216;2023-02-28T01:37:53;0.80;95.10
1129;DHT22;553;51.038;7.216;2023-02-28T01:40:20;0.70;95.20
1129;DHT22;553;51.038;7.216;2023-02-28T01:42:47;0.80;95.00
1129;DHT22;553;51.038;7.216;2023-02-28T01:45:26;0.70;95.00
1129;DHT22;553;51.038;7.216;2023-02-28T01:47:58;0.70;95.10
1129;DHT22;553;51.038;7.216;2023-02-28T01:50:31;0.70;95.00
1129;DHT22;553;51.038;7.216;2023-02-28T01:53:01;0.60;94.90
1129;DHT22;553;51.038;7.216;2023-02-28T01:55:31;0.70;94.70
1129;DHT22;553;51.038;7.216;2023-02-28T01:58:01;0.60;94.20
1129;DHT22;553;51.038;7.216;2023-02-28T02:00:30;0.60;94.10
1129;DHT22;553;51.038;7.216;2023-02-28T02:02:59;0.50;94.00
1129;DHT22;553;51.038;7.216;2023-02-28T02:05:29;0.60;93.30
1129;DHT22;553;51.038;7.216;2023-02-28T02:08:06;0.60;92.90
1129;DHT22;553;51.038;7.216;2023-02-28T02:10:44;0.70;93.10
1129;DHT22;553;51.038;7.216;2023-02-28T02:16:28;0.70;91.60
1129;DHT22;553;51.038;7.216;2023-02-28T02:22:21;0.70;91.10
1129;DHT22;553;51.038;7.216;2023-02-28T02:31:06;0.80;89.60
1129;DHT22;553;51.038;7.216;2023-02-28T02:33:58;0.80;89.40
1129;DHT22;553;51.038;7.216;2023-02-28T02:36:33;0.70;89.80
1129;DHT22;553;51.038;7.216;2023-02-28T02:39:15;0.70;89.30
1129;DHT22;553;51.038;7.216;2023-02-28T02:41:51;0.60;89.10
1129;DHT22;553;51.038;7.216;2023-02-28T02:44:34;0.60;89.30
1129;DHT22;553;51.038;7.216;2023-02-28T02:47:10;0.70;89.40
1129;DHT22;553;51.038;7.216;2023-02-28T02:49:40;0.70;89.70
1129;DHT22;553;51.038;7.216;2023-02-28T02:52:12;0.70;90.00
1129;DHT22;553;51.038;7.216;2023-02-28T02:54:43;0.70;90.10
1129;DHT22;553;51.038;7.216;2023-02-28T02:57:20;0.60;90.20
1129;DHT22;553;51.038;7.216;2023-02-28T02:59:49;0.60;90.40
1129;DHT22;553;51.038;7.216;2023-02-28T03:02:20;0.50;90.50
1129;DHT22;553;51.038;7.216;2023-02-28T03:04:53;0.40;90.80
1129;DHT22;553;51.038;7.216;2023-02-28T03:07:27;0.40;91.10
1129;DHT22;553;51.038;7.216;2023-02-28T03:09:55;0.40;91.40
1129;DHT22;553;51.038;7.216;2023-02-28T03:12:40;0.30;91.40
1129;DHT22;553;51.038;7.216;2023-02-28T03:15:21;0.30;91.80
1129;DHT22;553;51.038;7.216;2023-02-28T03:18:05;0.30;91.90
1129;DHT22;553;51.038;7.216;2023-02-28T03:20:51;0.30;92.10
1129;DHT22;553;51.038;7.216;2023-02-28T03:23:42;0.20;92.40
1129;DHT22;553;51.038;7.216;2023-02-28T03:26:17;0.20;92.80
1129;DHT22;553;51.038;7.216;2023-02-28T03:31:39;0.20;93.40
1129;DHT22;553;51.038;7.216;2023-02-28T03:34:16;0.10;94.10
1129;DHT22;553;51.038;7.216;2023-02-28T03:36:48;0.00;94.60
1129;DHT22;553;51.038;7.216;2023-02-28T03:39:31;0.10;95.10
1129;DHT22;553;51.038;7.216;2023-02-28T03:42:11;0.10;95.30
1129;DHT22;553;51.038;7.216;2023-02-28T03:44:45;0.10;95.60
1129;DHT22;553;51.038;7.216;2023-02-28T03:47:39;0.10;95.70
1129;DHT22;553;51.038;7.216;2023-02-28T03:52:47;0.10;95.90
1129;DHT22;553;51.038;7.216;2023-02-28T03:55:16;0.00;96.00
1129;DHT22;553;51.038;7.216;2023-02-28T03:58:05;0.00;96.30
1129;DHT22;553;51.038;7.216;2023-02-28T04:00:40;0.00;96.30
1129;DHT22;553;51.038;7.216;2023-02-28T04:03:07;0.00;96.30
1129;DHT22;553;51.038;7.216;2023-02-28T04:05:46;0.00;96.30
1129;DHT22;553;51.038;7.216;2023-02-28T04:08:14;0.00;96.40
1129;DHT22;553;51.038;7.216;2023-02-28T04:10:41;-0.10;96.40
1129;DHT22;553;51.038;7.216;2023-02-28T04:13:11;-0.10;96.60
1129;DHT22;553;51.038;7.216;2023-02-28T04:15:38;-0.10;96.40
1129;DHT22;553;51.038;7.216;2023-02-28T04:18:04;-0.20;96.30
1129;DHT22;553;51.038;7.216;2023-02-28T04:20:32;-0.10;96.50
1129;DHT22;553;51.038;7.216;2023-02-28T04:22:58;-0.20;96.20
1129;DHT22;553;51.038;7.216;2023-02-28T04:25:25;-0.20;96.20
1129;DHT22;553;51.038;7.216;2023-02-28T04:27:51;-0.20;96.10
1129;DHT22;553;51.038;7.216;2023-02-28T04:30:18;-0.20;96.10
1129;DHT22;553;51.038;7.216;2023-02-28T04:32:45;-0.20;96.20
1129;DHT22;553;51.038;7.216;2023-02-28T04:35:11;-0.20;96.10
1129;DHT22;553;51.038;7.216;2023-02-28T04:37:38;-0.20;95.80
1129;DHT22;553;51.038;7.216;2023-02-28T04:40:05;-0.20;95.60
1129;DHT22;553;51.038;7.216;2023-02-28T04:42:32;-0.20;95.60
1129;DHT22;553;51.038;7.216;2023-02-28T04:45:03;-0.20;95.50
1129;DHT22;553;51.038;7.216;2023-02-28T04:47:30;-0.30;95.50
1129;DHT22;553;51.038;7.216;2023-02-28T04:49:56;-0.30;95.40
1129;DHT22;553;51.038;7.216;2023-02-28T04:52:23;-0.30;95.30
1129;DHT22;553;51.038;7.216;2023-02-28T04:54:50;-0.30;95.50
1129;DHT22;553;51.038;7.216;2023-02-28T04:57:17;-0.30;95.40
1129;DHT22;553;51.038;7.216;2023-02-28T04:59:44;-0.30;95.60
1129;DHT22;553;51.038;7.216;2023-02-28T05:02:10;-0.30;95.30
1129;DHT22;553;51.038;7.216;2023-02-28T05:04:37;-0.40;95.20
1129;DHT22;553;51.038;7.216;2023-02-28T05:07:04;-0.40;95.50
1129;DHT22;553;51.038;7.216;2023-02-28T05:09:31;-0.40;95.50
1129;DHT22;553;51.038;7.216;2023-02-28T05:11:59;-0.40;95.60
1129;DHT22;553;51.038;7.216;2023-02-28T05:14:25;-0.50;95.50
1129;DHT22;553;51.038;7.216;2023-02-28T05:16:52;-0.50;95.50
1129;DHT22;553;51.038;7.216;2023-02-28T05:19:19;-0.40;95.60
1129;DHT22;553;51.038;7.216;2023-02-28T05:21:52;-0.40;95.80
1129;DHT22;553;51.038;7.216;2023-02-28T05:24:20;-0.40;95.30
1129;DHT22;553;51.038;7.216;2023-02-28T05:26:52;-0.40;95.00
1129;DHT22;553;51.038;7.216;2023-02-28T05:29:19;-0.40;95.10
1129;DHT22;553;51.038;7.216;2023-02-28T05:31:46;-0.30;94.90
1129;DHT22;553;51.038;7.216;2023-02-28T05:34:14;-0.30;94.80
1129;DHT22;553;51.038;7.216;2023-02-28T05:36:42;-0.30;94.60
1129;DHT22;553;51.038;7.216;2023-02-28T05:39:09;-0.40;94.40
1129;DHT22;553;51.038;7.216;2023-02-28T05:41:43;-0.40;94.40
1129;DHT22;553;51.038;7.216;2023-02-28T05:44:10;-0.40;93.90
1129;DHT22;553;51.038;7.216;2023-02-28T05:46:37;-0.40;93.70
1129;DHT22;553;51.038;7.216;2023-02-28T05:49:04;-0.30;93.50
1129;DHT22;553;51.038;7.216;2023-02-28T05:51:31;-0.30;93.10
1129;DHT22;553;51.038;7.216;2023-02-28T05:53:59;-0.40;92.70
1129;DHT22;553;51.038;7.216;2023-02-28T05:56:27;-0.40;92.60
1129;DHT22;553;51.038;7.216;2023-02-28T05:58:54;-0.50;92.90
1129;DHT22;553;51.038;7.216;2023-02-28T06:03:52;-0.50;92.60
1129;DHT22;553;51.038;7.216;2023-02-28T06:06:19;-0.60;92.50
1129;DHT22;553;51.038;7.216;2023-02-28T06:08:45;-0.60;92.50
1129;DHT22;553;51.038;7.216;2023-02-28T06:11:12;-0.60;92.50
1129;DHT22;553;51.038;7.216;2023-02-28T06:13:39;-0.60;92.40
1129;DHT22;553;51.038;7.216;2023-02-28T06:16:07;-0.60;92.20
1129;DHT22;553;51.038;7.216;2023-02-28T06:18:34;-0.60;92.30
1129;DHT22;553;51.038;7.216;2023-02-28T06:21:01;-0.70;92.20
1129;DHT22;553;51.038;7.216;2023-02-28T06:23:27;-0.70;92.30
1129;DHT22;553;51.038;7.216;2023-02-28T06:25:54;-0.70;92.40
1129;DHT22;553;51.038;7.216;2023-02-28T06:28:25;-0.70;92.20
1129;DHT22;553;51.038;7.216;2023-02-28T06:30:52;-0.70;92.30
1129;DHT22;553;51.038;7.216;2023-02-28T06:33:19;-0.70;92.10
1129;DHT22;553;51.038;7.216;2023-02-28T06:35:52;-0.70;91.80
1129;DHT22;553;51.038;7.216;2023-02-28T06:38:19;-0.60;91.70
1129;DHT22;553;51.038;7.216;2023-02-28T06:40:53;-0.60;91.50
1129;DHT22;553;51.038;7.216;2023-02-28T06:43:21;-0.60;91.40
1129;DHT22;553;51.038;7.216;2023-02-28T06:45:48;-0.50;91.20
1129;DHT22;553;51.038;7.216;2023-02-28T06:48:16;-0.50;90.80
1129;DHT22;553;51.038;7.216;2023-02-28T06:50:43;-0.50;90.60
1129;DHT22;553;51.038;7.216;2023-02-28T06:53:09;-0.50;90.40
1129;DHT22;553;51.038;7.216;2023-02-28T06:55:38;-0.50;90.00
1129;DHT22;553;51.038;7.216;2023-02-28T06:58:05;-0.50;89.80
1129;DHT22;553;51.038;7.216;2023-02-28T07:00:42;-0.40;89.80
1129;DHT22;553;51.038;7.216;2023-02-28T07:03:11;-0.40;89.20
1129;DHT22;553;51.038;7.216;2023-02-28T07:05:39;-0.30;88.80
1129;DHT22;553;51.038;7.216;2023-02-28T07:08:06;-0.40;88.40
1129;DHT22;553;51.038;7.216;2023-02-28T07:10:33;-0.40;88.40
1129;DHT22;553;51.038;7.216;2023-02-28T07:13:00;-0.30;88.00
1129;DHT22;553;51.038;7.216;2023-02-28T07:15:27;-0.20;87.90
1129;DHT22;553;51.038;7.216;2023-02-28T07:17:53;-0.20;87.80
1129;DHT22;553;51.038;7.216;2023-02-28T07:20:20;-0.20;87.80
1129;DHT22;553;51.038;7.216;2023-02-28T07:22:47;-0.20;87.30
1129;DHT22;553;51.038;7.216;2023-02-28T07:25:27;-0.10;87.10
1129;DHT22;553;51.038;7.216;2023-02-28T07:27:55;-0.10;87.10
1129;DHT22;553;51.038;7.216;2023-02-28T07:30:23;-0.10;87.00
1129;DHT22;553;51.038;7.216;2023-02-28T07:32:49;0.00;86.80
1129;DHT22;553;51.038;7.216;2023-02-28T07:35:16;0.10;87.00
1129;DHT22;553;51.038;7.216;2023-02-28T07:37:43;0.10;86.30
1129;DHT22;553;51.038;7.216;2023-02-28T07:40:10;0.20;86.20
1129;DHT22;553;51.038;7.216;2023-02-28T07:42:41;0.20;86.10
1129;DHT22;553;51.038;7.216;2023-02-28T07:45:10;0.20;86.00
1129;DHT22;553;51.038;7.216;2023-02-28T07:47:38;0.30;86.10
1129;DHT22;553;51.038;7.216;2023-02-28T07:50:07;0.30;85.90
1129;DHT22;553;51.038;7.216;2023-02-28T07:52:34;0.30;85.60
1129;DHT22;553;51.038;7.216;2023-02-28T07:55:00;0.30;86.00
1129;DHT22;553;51.038;7.216;2023-02-28T07:57:27;0.40;85.90
1129;DHT22;553;51.038;7.216;2023-02-28T07:59:54;0.40;85.50
1129;DHT22;553;51.038;7.216;2023-02-28T08:02:21;0.50;85.20
1129;DHT22;553;51.038;7.216;2023-02-28T08:04:48;0.60;85.10
1129;DHT22;553;51.038;7.216;2023-02-28T08:07:16;0.60;84.90
1129;DHT22;553;51.038;7.216;2023-02-28T08:09:44;0.60;84.80
1129;DHT22;553;51.038;7.216;2023-02-28T08:12:11;0.60;83.90
1129;DHT22;553;51.038;7.216;2023-02-28T08:14:38;0.70;83.50
1129;DHT22;553;51.038;7.216;2023-02-28T08:17:06;0.70;83.80
1129;DHT22;553;51.038;7.216;2023-02-28T08:19:33;0.80;82.90
1129;DHT22;553;51.038;7.216;2023-02-28T08:21:59;0.90;82.70
1129;DHT22;553;51.038;7.216;2023-02-28T08:24:26;1.00;82.20
1129;DHT22;553;51.038;7.216;2023-02-28T08:26:53;1.10;82.00
1129;DHT22;553;51.038;7.216;2023-02-28T08:29:19;1.20;81.20
1129;DHT22;553;51.038;7.216;2023-02-28T08:31:46;1.40;81.20
1129;DHT22;553;51.038;7.216;2023-02-28T08:34:15;1.70;80.10
1129;DHT22;553;51.038;7.216;2023-02-28T08:36:42;2.00;79.00
1129;DHT22;553;51.038;7.216;2023-02-28T08:39:12;2.40;78.50
1129;DHT22;553;51.038;7.216;2023-02-28T08:41:39;2.70;77.10
1129;DHT22;553;51.038;7.216;2023-02-28T08:44:06;3.00;75.40
1129;DHT22;553;51.038;7.216;2023-02-28T08:46:32;3.30;75.40
1129;DHT22;553;51.038;7.216;2023-02-28T08:48:59;3.70;75.60
1129;DHT22;553;51.038;7.216;2023-02-28T08:51:28;4.00;74.10
1129;DHT22;553;51.038;7.216;2023-02-28T08:53:59;4.20;73.20
1129;DHT22;553;51.038;7.216;2023-02-28T08:56:27;4.40;72.70
1129;DHT22;553;51.038;7.216;2023-02-28T08:58:55;4.60;71.70
1129;DHT22;553;51.038;7.216;2023-02-28T09:01:25;4.80;69.80
1129;DHT22;553;51.038;7.216;2023-02-28T09:03:55;4.80;70.10
1129;DHT22;553;51.038;7.216;2023-02-28T09:06:27;4.90;69.60
1129;DHT22;553;51.038;7.216;2023-02-28T09:08:57;5.00;69.60
1129;DHT22;553;51.038;7.216;2023-02-28T09:11:26;5.00;69.50
1129;DHT22;553;51.038;7.216;2023-02-28T09:13:52;5.20;69.20
1129;DHT22;553;51.038;7.216;2023-02-28T09:16:19;5.60;68.50
1129;DHT22;553;51.038;7.216;2023-02-28T09:18:46;5.70;67.80
1129;DHT22;553;51.038;7.216;2023-02-28T09:21:15;5.50;68.30
1129;DHT22;553;51.038;7.216;2023-02-28T09:23:46;5.40;68.00
1129;DHT22;553;51.038;7.216;2023-02-28T09:26:19;5.50;67.30
1129;DHT22;553;51.038;7.216;2023-02-28T09:28:46;5.70;67.80
1129;DHT22;553;51.038;7.216;2023-02-28T09:31:21;6.00;67.00
1129;DHT22;553;51.038;7.216;2023-02-28T09:33:49;6.20;67.20
1129;DHT22;553;51.038;7.216;2023-02-28T09:36:17;6.20;65.40
1129;DHT22;553;51.038;7.216;2023-02-28T09:38:44;6.20;65.30
1129;DHT22;553;51.038;7.216;2023-02-28T09:41:17;6.20;64.40
1129;DHT22;553;51.038;7.216;2023-02-28T09:43:47;6.00;63.70
1129;DHT22;553;51.038;7.216;2023-02-28T09:46:32;5.50;64.10
1129;DHT22;553;51.038;7.216;2023-02-28T09:49:05;5.20;64.70
1129;DHT22;553;51.038;7.216;2023-02-28T09:54:19;5.40;66.30
1129;DHT22;553;51.038;7.216;2023-02-28T09:57:06;5.70;65.60
1129;DHT22;553;51.038;7.216;2023-02-28T10:00:03;6.00;65.20
1129;DHT22;553;51.038;7.216;2023-02-28T10:02:49;6.10;64.70
1129;DHT22;553;51.038;7.216;2023-02-28T10:05:23;5.90;65.00
1129;DHT22;553;51.038;7.216;2023-02-28T10:08:05;5.90;65.10
1129;DHT22;553;51.038;7.216;2023-02-28T10:10:41;5.80;65.50
1129;DHT22;553;51.038;7.216;2023-02-28T10:15:56;5.80;65.30
1129;DHT22;553;51.038;7.216;2023-02-28T10:18:38;5.50;65.20
1129;DHT22;553;51.038;7.216;2023-02-28T10:21:08;5.60;66.40
1129;DHT22;553;51.038;7.216;2023-02-28T10:23:37;5.60;65.80
1129;DHT22;553;51.038;7.216;2023-02-28T10:26:13;5.80;66.30
1129;DHT22;553;51.038;7.216;2023-02-28T10:28:42;5.80;66.20
1129;DHT22;553;51.038;7.216;2023-02-28T10:31:17;5.70;65.60
1129;DHT22;553;51.038;7.216;2023-02-28T10:33:45;5.80;66.50
1129;DHT22;553;51.038;7.216;2023-02-28T10:36:18;5.80;66.10
1129;DHT22;553;51.038;7.216;2023-02-28T10:38:47;5.90;66.40
1129;DHT22;553;51.038;7.216;2023-02-28T10:41:17;5.80;67.00
1129;DHT22;553;51.038;7.216;2023-02-28T10:43:53;5.40;66.90
1129;DHT22;553;51.038;7.216;2023-02-28T10:46:40;5.30;68.00
1129;DHT22;553;51.038;7.216;2023-02-28T10:49:20;5.30;68.60
1129;DHT22;553;51.038;7.216;2023-02-28T10:51:51;5.60;68.00
1129;DHT22;553;51.038;7.216;2023-02-28T10:54:24;5.60;67.80
1129;DHT22;553;51.038;7.216;2023-02-28T10:59:33;5.60;67.90
1129;DHT22;553;51.038;7.216;2023-02-28T11:02:00;5.50;67.90
1129;DHT22;553;51.038;7.216;2023-02-28T11:07:16;5.30;68.20
1129;DHT22;553;51.038;7.216;2023-02-28T11:09:48;5.50;67.60
1129;DHT22;553;51.038;7.216;2023-02-28T11:12:39;5.60;67.60
1129;DHT22;553;51.038;7.216;2023-02-28T11:15:28;5.70;68.10
1129;DHT22;553;51.038;7.216;2023-02-28T11:18:04;5.70;67.70
1129;DHT22;553;51.038;7.216;2023-02-28T11:20:33;5.50;68.40
1129;DHT22;553;51.038;7.216;2023-02-28T11:23:03;5.50;68.10
1129;DHT22;553;51.038;7.216;2023-02-28T11:25:33;5.40;67.70
1129;DHT22;553;51.038;7.216;2023-02-28T11:28:03;5.50;68.50
1129;DHT22;553;51.038;7.216;2023-02-28T11:30:40;5.80;68.60
1129;DHT22;553;51.038;7.216;2023-02-28T11:36:33;5.60;67.10
1129;DHT22;553;51.038;7.216;2023-02-28T11:39:07;5.60;67.50
1129;DHT22;553;51.038;7.216;2023-02-28T11:44:31;5.70;66.40
1129;DHT22;553;51.038;7.216;2023-02-28T11:52:54;5.60;68.00
1129;DHT22;553;51.038;7.216;2023-02-28T11:55:51;5.30;66.40
1129;DHT22;553;51.038;7.216;2023-02-28T12:06:30;5.50;67.20
1129;DHT22;553;51.038;7.216;2023-02-28T12:11:57;5.70;66.30
1129;DHT22;553;51.038;7.216;2023-02-28T12:20:24;5.80;65.60
1129;DHT22;553;51.038;7.216;2023-02-28T12:26:28;5.80;66.70
1129;DHT22;553;51.038;7.216;2023-02-28T12:29:04;5.80;66.40
1129;DHT22;553;51.038;7.216;2023-02-28T12:31:38;5.60;67.50
1129;DHT22;553;51.038;7.216;2023-02-28T12:34:16;5.60;66.90
1129;DHT22;553;51.038;7.216;2023-02-28T12:36:45;5.60;67.00
1129;DHT22;553;51.038;7.216;2023-02-28T12:39:35;5.80;66.50
1129;DHT22;553;51.038;7.216;2023-02-28T12:42:36;6.40;66.70
1129;DHT22;553;51.038;7.216;2023-02-28T12:45:22;6.20;65.30
1129;DHT22;553;51.038;7.216;2023-02-28T12:47:58;5.80;65.30
1129;DHT22;553;51.038;7.216;2023-02-28T12:50:27;5.70;65.90
1129;DHT22;553;51.038;7.216;2023-02-28T12:53:03;5.70;66.20
1129;DHT22;553;51.038;7.216;2023-02-28T12:58:33;5.90;66.10
1129;DHT22;553;51.038;7.216;2023-02-28T13:04:28;5.70;66.10
1129;DHT22;553;51.038;7.216;2023-02-28T13:09:59;5.80;66.20
1129;DHT22;553;51.038;7.216;2023-02-28T13:12:27;5.70;65.90
1129;DHT22;553;51.038;7.216;2023-02-28T13:15:17;5.80;66.90
1129;DHT22;553;51.038;7.216;2023-02-28T13:17:56;5.70;66.90
1129;DHT22;553;51.038;7.216;2023-02-28T13:20:33;5.50;67.30
1129;DHT22;553;51.038;7.216;2023-02-28T13:23:01;5.50;67.70
1129;DHT22;553;51.038;7.216;2023-02-28T13:28:10;5.70;68.00
1129;DHT22;553;51.038;7.216;2023-02-28T13:31:06;5.60;67.80
1129;DHT22;553;51.038;7.216;2023-02-28T13:33:35;5.70;68.10
1129;DHT22;553;51.038;7.216;2023-02-28T13:55:28;5.90;67.00
1129;DHT22;553;51.038;7.216;2023-02-28T13:58:08;5.90;67.10
1129;DHT22;553;51.038;7.216;2023-02-28T14:03:36;5.90;66.70
1129;DHT22;553;51.038;7.216;2023-02-28T14:06:35;5.80;66.90
1129;DHT22;553;51.038;7.216;2023-02-28T14:09:19;6.00;67.20
1129;DHT22;553;51.038;7.216;2023-02-28T14:11:47;6.00;67.10
1129;DHT22;553;51.038;7.216;2023-02-28T14:17:12;6.00;67.30
1129;DHT22;553;51.038;7.216;2023-02-28T14:19:44;5.90;66.80
1129;DHT22;553;51.038;7.216;2023-02-28T14:25:20;6.00;67.60
1129;DHT22;553;51.038;7.216;2023-02-28T14:28:08;6.20;67.50
1129;DHT22;553;51.038;7.216;2023-02-28T14:31:01;6.20;67.10
1129;DHT22;553;51.038;7.216;2023-02-28T14:33:50;6.10;67.00
1129;DHT22;553;51.038;7.216;2023-02-28T14:36:33;6.00;66.40
1129;DHT22;553;51.038;7.216;2023-02-28T14:39:15;6.00;66.60
1129;DHT22;553;51.038;7.216;2023-02-28T14:41:44;6.10;67.00
1129;DHT22;553;51.038;7.216;2023-02-28T14:44:26;6.10;66.50
1129;DHT22;553;51.038;7.216;2023-02-28T14:46:55;6.10;66.40
1129;DHT22;553;51.038;7.216;2023-02-28T14:49:31;6.10;66.40
1129;DHT22;553;51.038;7.216;2023-02-28T14:52:06;6.10;67.60
1129;DHT22;553;51.038;7.216;2023-02-28T14:54:37;6.00;67.10
1129;DHT22;553;51.038;7.216;2023-02-28T14:57:04;6.00;67.00
1129;DHT22;553;51.038;7.216;2023-02-28T14:59:33;5.90;67.00
1129;DHT22;553;51.038;7.216;2023-02-28T15:02:21;6.00;67.40
1129;DHT22;553;51.038;7.216;2023-02-28T15:07:43;6.10;67.60
1129;DHT22;553;51.038;7.216;2023-02-28T15:10:27;6.10;66.90
1129;DHT22;553;51.038;7.216;2023-02-28T15:12:59;6.00;66.90
1129;DHT22;553;51.038;7.216;2023-02-28T15:18:53;6.20;66.90
1129;DHT22;553;51.038;7.216;2023-02-28T15:21:26;6.20;66.70
1129;DHT22;553;51.038;7.216;2023-02-28T15:26:34;6.20;66.50
1129;DHT22;553;51.038;7.216;2023-02-28T15:29:17;6.10;66.70
1129;DHT22;553;51.038;7.216;2023-02-28T15:31:52;6.10;66.80
1129;DHT22;553;51.038;7.216;2023-02-28T15:34:41;6.10;67.30
1129;DHT22;553;51.038;7.216;2023-02-28T15:42:37;6.40;67.80
1129;DHT22;553;51.038;7.216;2023-02-28T15:45:04;6.40;67.80
1129;DHT22;553;51.038;7.216;2023-02-28T15:47:31;6.40;67.40
1129;DHT22;553;51.038;7.216;2023-02-28T15:50:08;6.40;67.50
1129;DHT22;553;51.038;7.216;2023-02-28T15:52:44;6.40;67.40
1129;DHT22;553;51.038;7.216;2023-02-28T15:55:21;6.30;67.00
1129;DHT22;553;51.038;7.216;2023-02-28T15:57:59;6.30;67.20
1129;DHT22;553;51.038;7.216;2023-02-28T16:00:27;6.20;67.00
1129;DHT22;553;51.038;7.216;2023-02-28T16:02:54;6.20;67.30
1129;DHT22;553;51.038;7.216;2023-02-28T16:05:28;6.20;67.10
1129;DHT22;553;51.038;7.216;2023-02-28T16:08:00;6.10;67.30
1129;DHT22;553;51.038;7.216;2023-02-28T16:10:29;6.10;67.80
1129;DHT22;553;51.038;7.216;2023-02-28T16:12:56;6.10;67.70
1129;DHT22;553;51.038;7.216;2023-02-28T16:15:26;6.10;67.80
1129;DHT22;553;51.038;7.216;2023-02-28T16:17:55;6.10;67.50
1129;DHT22;553;51.038;7.216;2023-02-28T16:20:25;6.00;67.60
1129;DHT22;553;51.038;7.216;2023-02-28T16:22:53;6.00;67.80
1129;DHT22;553;51.038;7.216;2023-02-28T16:25:23;5.90;68.40
1129;DHT22;553;51.038;7.216;2023-02-28T16:27:53;5.90;68.90
1129;DHT22;553;51.038;7.216;2023-02-28T16:30:23;5.90;69.30
1129;DHT22;553;51.038;7.216;2023-02-28T16:32:51;5.90;69.70
1129;DHT22;553;51.038;7.216;2023-02-28T16:35:19;5.80;69.60
1129;DHT22;553;51.038;7.216;2023-02-28T16:37:46;5.70;70.10
1129;DHT22;553;51.038;7.216;2023-02-28T16:40:15;5.70;70.60
1129;DHT22;553;51.038;7.216;2023-02-28T16:42:43;5.60;70.60
1129;DHT22;553;51.038;7.216;2023-02-28T16:45:20;5.50;71.30
1129;DHT22;553;51.038;7.216;2023-02-28T16:47:48;5.40;71.30
1129;DHT22;553;51.038;7.216;2023-02-28T16:50:17;5.40;71.70
1129;DHT22;553;51.038;7.216;2023-02-28T16:52:44;5.40;71.40
1129;DHT22;553;51.038;7.216;2023-02-28T16:55:11;5.30;71.50
1129;DHT22;553;51.038;7.216;2023-02-28T16:57:39;5.30;71.30
1129;DHT22;553;51.038;7.216;2023-02-28T17:00:08;5.20;71.50
1129;DHT22;553;51.038;7.216;2023-02-28T17:02:37;5.10;71.90
1129;DHT22;553;51.038;7.216;2023-02-28T17:05:10;5.10;72.00
1129;DHT22;553;51.038;7.216;2023-02-28T17:07:39;5.10;72.30
1129;DHT22;553;51.038;7.216;2023-02-28T17:10:23;5.10;72.30
1129;DHT22;553;51.038;7.216;2023-02-28T17:12:51;5.10;71.90
1129;DHT22;553;51.038;7.216;2023-02-28T17:15:22;5.10;71.70
1129;DHT22;553;51.038;7.216;2023-02-28T17:17:49;5.10;72.30
1129;DHT22;553;51.038;7.216;2023-02-28T17:20:18;5.20;72.70
1129;DHT22;553;51.038;7.216;2023-02-28T17:22:50;5.20;72.30
1129;DHT22;553;51.038;7.216;2023-02-28T17:25:17;5.20;72.70
1129;DHT22;553;51.038;7.216;2023-02-28T17:27:44;5.20;72.80
1129;DHT22;553;51.038;7.216;2023-02-28T17:30:18;5.10;73.00
1129;DHT22;553;51.038;7.216;2023-02-28T17:32:45;5.10;72.50
1129;DHT22;553;51.038;7.216;2023-02-28T17:35:13;5.00;72.40
1129;DHT22;553;51.038;7.216;2023-02-28T17:37:40;4.90;72.40
1129;DHT22;553;51.038;7.216;2023-02-28T17:40:13;4.90;72.70
1129;DHT22;553;51.038;7.216;2023-02-28T17:42:40;4.90;73.00
1129;DHT22;553;51.038;7.216;2023-02-28T17:45:07;4.80;72.90
1129;DHT22;553;51.038;7.216;2023-02-28T17:47:34;4.80;73.30
1129;DHT22;553;51.038;7.216;2023-02-28T17:50:00;4.70;74.00
1129;DHT22;553;51.038;7.216;2023-02-28T17:52:27;4.70;74.50
1129;DHT22;553;51.038;7.216;2023-02-28T17:54:56;4.60;75.60
1129;DHT22;553;51.038;7.216;2023-02-28T17:57:22;4.70;76.40
1129;DHT22;553;51.038;7.216;2023-02-28T17:59:50;4.60;75.80
1129;DHT22;553;51.038;7.216;2023-02-28T18:02:17;4.60;75.80
1129;DHT22;553;51.038;7.216;2023-02-28T18:04:43;4.40;77.20
1129;DHT22;553;51.038;7.216;2023-02-28T18:07:11;4.30;77.80
1129;DHT22;553;51.038;7.216;2023-02-28T18:09:38;4.20;78.00
1129;DHT22;553;51.038;7.216;2023-02-28T18:12:05;4.20;78.20
1129;DHT22;553;51.038;7.216;2023-02-28T18:14:31;4.20;78.70
1129;DHT22;553;51.038;7.216;2023-02-28T18:16:58;4.20;78.50
1129;DHT22;553;51.038;7.216;2023-02-28T18:19:25;4.10;79.10
1129;DHT22;553;51.038;7.216;2023-02-28T18:21:52;4.00;79.00
1129;DHT22;553;51.038;7.216;2023-02-28T18:24:21;4.00;78.90
1129;DHT22;553;51.038;7.216;2023-02-28T18:26:48;4.00;78.50
1129;DHT22;553;51.038;7.216;2023-02-28T18:29:19;3.90;79.70
1129;DHT22;553;51.038;7.216;2023-02-28T18:31:47;3.90;79.90
1129;DHT22;553;51.038;7.216;2023-02-28T18:34:14;3.80;80.30
1129;DHT22;553;51.038;7.216;2023-02-28T18:36:42;3.80;80.50
1129;DHT22;553;51.038;7.216;2023-02-28T18:39:09;3.70;80.80
1129;DHT22;553;51.038;7.216;2023-02-28T18:41:37;3.70;81.00
1129;DHT22;553;51.038;7.216;2023-02-28T18:44:04;3.70;81.20
1129;DHT22;553;51.038;7.216;2023-02-28T18:46:44;3.60;81.70
1129;DHT22;553;51.038;7.216;2023-02-28T18:49:11;3.50;81.70
1129;DHT22;553;51.038;7.216;2023-02-28T18:51:38;3.50;81.70
1129;DHT22;553;51.038;7.216;2023-02-28T18:54:05;3.50;81.40
1129;DHT22;553;51.038;7.216;2023-02-28T18:56:31;3.50;81.10
1129;DHT22;553;51.038;7.216;2023-02-28T18:58:58;3.50;81.00
1129;DHT22;553;51.038;7.216;2023-02-28T19:01:27;3.40;80.90
1129;DHT22;553;51.038;7.216;2023-02-28T19:03:57;3.30;81.30